createdAt,value
2018-06-22T00:02:24.434Z,18.34
2018-06-22T00:04:53.061Z,18.32
2018-06-22T00:07:21.714Z,18.31
2018-06-22T00:09:50.389Z,18.26
2018-06-22T00:12:19.022Z,18.23
2018-06-22T00:14:47.653Z,18.09
2018-06-22T00:17:16.287Z,18.13
2018-06-22T00:19:44.894Z,18.13
2018-06-22T00:22:13.583Z,18.10
2018-06-22T00:24:42.229Z,18.14
2018-06-22T00:27:11.814Z,18.12
2018-06-22T00:29:40.461Z,18.09
2018-06-22T00:32:09.046Z,18.16
2018-06-22T00:34:37.703Z,18.16
2018-06-22T00:37:06.659Z,18.12
2018-06-22T00:39:35.309Z,18.08
2018-06-22T00:42:03.963Z,18.16
2018-06-22T00:44:32.934Z,18.19
2018-06-22T00:47:01.598Z,18.16
2018-06-22T00:49:30.293Z,18.11
2018-06-22T00:51:59.011Z,18.06
2018-06-22T00:54:27.632Z,18.09
2018-06-22T00:56:56.297Z,17.96
2018-06-22T00:59:24.961Z,17.87
2018-06-22T01:01:53.588Z,17.83
2018-06-22T01:04:22.239Z,17.77
2018-06-22T01:06:50.896Z,17.77
2018-06-22T01:09:19.580Z,17.77
2018-06-22T01:11:48.228Z,17.76
2018-06-22T01:14:16.906Z,17.78
2018-06-22T01:16:45.623Z,17.72
2018-06-22T01:19:14.266Z,17.69
2018-06-22T01:21:42.864Z,17.56
2018-06-22T01:24:11.484Z,17.35
2018-06-22T01:26:40.106Z,17.35
2018-06-22T01:29:13.895Z,17.45
2018-06-22T01:31:42.549Z,17.57
2018-06-22T01:34:11.182Z,17.56
2018-06-22T01:36:39.865Z,17.53
2018-06-22T01:39:09.265Z,17.51
2018-06-22T01:41:37.915Z,17.43
2018-06-22T01:44:06.557Z,17.35
2018-06-22T01:46:35.715Z,17.36
2018-06-22T01:49:04.652Z,17.30
2018-06-22T01:51:33.315Z,17.26
2018-06-22T01:54:02.050Z,17.29
2018-06-22T01:56:30.714Z,17.25
2018-06-22T01:58:59.400Z,17.13
2018-06-22T02:01:28.078Z,17.13
2018-06-22T02:03:56.778Z,17.16
2018-06-22T02:06:25.431Z,17.19
2018-06-22T02:08:54.082Z,17.23
2018-06-22T02:11:22.762Z,17.33
2018-06-22T02:13:51.518Z,17.29
2018-06-22T02:16:20.231Z,17.30
2018-06-22T02:18:48.859Z,17.24
2018-06-22T02:21:17.497Z,17.21
2018-06-22T02:23:46.238Z,17.25
2018-06-22T02:26:14.905Z,17.27
2018-06-22T02:28:43.602Z,17.23
2018-06-22T02:31:12.444Z,17.23
2018-06-22T02:33:41.282Z,17.18
2018-06-22T02:36:09.933Z,17.09
2018-06-22T02:38:38.573Z,17.07
2018-06-22T02:41:07.488Z,17.09
2018-06-22T02:43:36.499Z,17.13
2018-06-22T02:46:05.878Z,17.15
2018-06-22T02:48:34.552Z,17.18
2018-06-22T02:51:03.178Z,17.22
2018-06-22T02:53:31.827Z,17.22
2018-06-22T02:56:00.783Z,17.12
2018-06-22T02:58:29.484Z,17.15
2018-06-22T03:00:58.229Z,17.17
2018-06-22T03:03:26.867Z,17.14
2018-06-22T03:05:55.571Z,17.12
2018-06-22T03:08:24.270Z,17.09
2018-06-22T03:10:52.946Z,17.16
2018-06-22T03:13:21.590Z,17.18
2018-06-22T03:15:50.479Z,17.16
2018-06-22T03:18:19.174Z,17.22
2018-06-22T03:20:47.820Z,17.13
2018-06-22T03:23:16.538Z,17.08
2018-06-22T03:25:45.145Z,17.10
2018-06-22T03:28:13.744Z,17.23
2018-06-22T03:30:42.355Z,17.24
2018-06-22T03:33:10.980Z,17.29
2018-06-22T03:35:39.663Z,17.36
2018-06-22T03:38:08.382Z,17.45
2018-06-22T03:40:37.034Z,17.48
2018-06-22T03:43:05.679Z,17.56
2018-06-22T03:45:34.309Z,17.55
2018-06-22T03:48:02.966Z,17.56
2018-06-22T03:50:31.675Z,17.58
2018-06-22T03:53:00.394Z,17.62
2018-06-22T03:55:29.081Z,17.67
2018-06-22T03:57:57.838Z,17.74
2018-06-22T04:00:26.506Z,17.84
2018-06-22T04:02:55.142Z,17.88
2018-06-22T04:05:23.811Z,17.87
2018-06-22T04:07:52.442Z,17.92
2018-06-22T04:10:21.112Z,17.98
2018-06-22T04:12:49.761Z,18.06
2018-06-22T04:15:18.888Z,18.13
2018-06-22T04:17:53.659Z,18.16
2018-06-22T04:20:24.747Z,18.24
2018-06-22T04:22:53.779Z,18.21
2018-06-22T04:25:23.433Z,18.31
2018-06-22T04:27:52.702Z,18.38
2018-06-22T04:30:21.393Z,18.43
2018-06-22T04:32:50.749Z,18.53
2018-06-22T04:35:19.374Z,18.59
2018-06-22T04:37:48.035Z,18.65
2018-06-22T04:40:16.695Z,18.72
2018-06-22T04:42:45.335Z,18.77
2018-06-22T04:45:14.020Z,18.83
2018-06-22T04:47:42.685Z,18.86
2018-06-22T04:50:12.192Z,18.93
2018-06-22T04:52:40.822Z,18.94
2018-06-22T04:55:09.672Z,19.06
2018-06-22T04:57:38.318Z,19.08
2018-06-22T05:00:07.139Z,19.14
2018-06-22T05:02:35.793Z,19.22
2018-06-22T05:05:04.562Z,19.05
2018-06-22T05:07:33.203Z,19.20
2018-06-22T05:10:01.875Z,19.24
2018-06-22T05:12:30.490Z,19.23
2018-06-22T05:14:59.171Z,19.32
2018-06-22T05:17:27.805Z,19.37
2018-06-22T05:19:56.458Z,19.40
2018-06-22T05:22:25.174Z,19.45
2018-06-22T05:24:53.876Z,19.55
2018-06-22T05:27:22.558Z,19.65
2018-06-22T05:29:51.261Z,19.65
2018-06-22T05:32:19.953Z,19.73
2018-06-22T05:34:48.689Z,19.79
2018-06-22T05:37:17.938Z,19.82
2018-06-22T05:39:46.669Z,19.90
2018-06-22T05:42:15.315Z,19.90
2018-06-22T05:44:43.998Z,19.97
2018-06-22T05:47:12.618Z,20.06
2018-06-22T05:49:41.282Z,20.03
2018-06-22T05:52:09.980Z,20.10
2018-06-22T05:54:38.631Z,20.25
2018-06-22T05:57:07.252Z,20.30
2018-06-22T05:59:35.914Z,20.40
2018-06-22T06:02:04.517Z,20.39
2018-06-22T06:04:33.139Z,20.45
2018-06-22T06:07:01.950Z,20.53
2018-06-22T06:09:30.591Z,20.57
2018-06-22T06:11:59.214Z,20.57
2018-06-22T06:14:27.911Z,20.65
2018-06-22T06:16:57.617Z,20.74
2018-06-22T06:19:26.294Z,20.83
2018-06-22T06:21:54.982Z,20.78
2018-06-22T06:24:23.664Z,20.93
2018-06-22T06:26:52.304Z,20.92
2018-06-22T06:29:20.994Z,20.96
2018-06-22T06:31:50.276Z,21.07
2018-06-22T06:34:18.972Z,21.12
2018-06-22T06:36:47.617Z,21.11
2018-06-22T06:39:16.345Z,21.23
2018-06-22T06:41:45.077Z,21.27
2018-06-22T06:44:13.768Z,21.38
2018-06-22T06:46:42.671Z,21.51
2018-06-22T06:49:11.352Z,21.67
2018-06-22T06:51:40.085Z,21.68
2018-06-22T06:54:08.723Z,21.83
2018-06-22T06:56:37.339Z,21.79
2018-06-22T06:59:06.012Z,21.92
2018-06-22T07:01:34.698Z,21.80
2018-06-22T07:04:03.357Z,21.78
2018-06-22T07:06:31.986Z,22.01
2018-06-22T07:09:00.690Z,22.02
2018-06-22T07:11:29.404Z,22.20
2018-06-22T07:13:58.039Z,22.33
2018-06-22T07:16:26.683Z,22.43
2018-06-22T07:18:55.400Z,22.60
2018-06-22T07:21:24.068Z,22.63
2018-06-22T07:23:52.783Z,22.79
2018-06-22T07:26:21.477Z,22.83
2018-06-22T07:28:50.133Z,22.95
2018-06-22T07:31:18.791Z,23.13
2018-06-22T07:33:47.389Z,23.21
2018-06-22T07:36:16.101Z,23.20
2018-06-22T07:38:44.754Z,23.26
2018-06-22T07:41:13.428Z,23.29
2018-06-22T07:43:42.055Z,23.24
2018-06-22T07:46:10.703Z,23.18
2018-06-22T07:48:39.588Z,23.23
2018-06-22T07:51:08.222Z,23.24
2018-06-22T07:53:36.851Z,23.28
2018-06-22T07:56:05.562Z,23.47
2018-06-22T07:58:34.215Z,23.59
2018-06-22T08:01:02.848Z,23.71
2018-06-22T08:03:31.486Z,23.79
2018-06-22T08:06:00.126Z,23.79
2018-06-22T08:08:29.686Z,23.95
2018-06-22T08:10:58.320Z,24.13
2018-06-22T08:13:27.001Z,24.14
2018-06-22T08:15:55.738Z,24.30
2018-06-22T08:18:24.391Z,24.45
2018-06-22T08:20:53.128Z,24.54
2018-06-22T08:23:21.830Z,24.54
2018-06-22T08:25:51.320Z,24.45
2018-06-22T08:28:19.995Z,24.71
2018-06-22T08:30:48.667Z,24.86
2018-06-22T08:33:17.582Z,24.93
2018-06-22T08:35:46.562Z,24.96
2018-06-22T08:38:15.195Z,25.09
2018-06-22T08:40:43.930Z,24.94
2018-06-22T08:43:13.394Z,25.10
2018-06-22T08:45:42.031Z,25.22
2018-06-22T08:48:10.672Z,25.37
2018-06-22T08:50:39.286Z,25.43
2018-06-22T08:53:07.937Z,25.62
2018-06-22T08:55:36.581Z,25.63
2018-06-22T08:58:05.199Z,25.51
2018-06-22T09:00:33.853Z,25.71
2018-06-22T09:03:02.595Z,25.79
2018-06-22T09:05:31.272Z,26.07
2018-06-22T09:08:00.032Z,26.09
2018-06-22T09:10:28.639Z,26.01
2018-06-22T09:12:57.336Z,26.22
2018-06-22T09:15:26.006Z,26.31
2018-06-22T09:17:54.690Z,26.38
2018-06-22T09:20:23.353Z,26.47
2018-06-22T09:22:52.219Z,26.37
2018-06-22T09:25:20.866Z,26.62
2018-06-22T09:27:49.576Z,26.68
2018-06-22T09:30:18.273Z,26.74
2018-06-22T09:32:47.138Z,26.54
2018-06-22T09:35:15.786Z,26.68
2018-06-22T09:37:44.460Z,26.69
2018-06-22T09:40:13.106Z,26.89
2018-06-22T09:42:41.809Z,26.90
2018-06-22T09:45:10.489Z,26.95
2018-06-22T09:47:39.188Z,26.84
2018-06-22T09:50:07.839Z,26.81
2018-06-22T09:52:36.592Z,26.60
2018-06-22T09:55:05.375Z,26.49
2018-06-22T09:57:33.964Z,26.53
2018-06-22T10:00:02.669Z,26.71
2018-06-22T10:02:31.351Z,26.71
2018-06-22T10:04:59.951Z,27.04
2018-06-22T10:07:28.579Z,26.74
2018-06-22T10:09:57.345Z,27.15
2018-06-22T10:12:26.673Z,27.25
2018-06-22T10:14:55.326Z,27.49
2018-06-22T10:17:23.932Z,27.83
2018-06-22T10:19:52.618Z,27.83
2018-06-22T10:22:21.229Z,27.92
2018-06-22T10:24:49.883Z,28.25
2018-06-22T10:27:18.610Z,28.49
2018-06-22T10:29:47.341Z,28.21
2018-06-22T10:32:16.440Z,27.67
2018-06-22T10:34:45.127Z,27.51
2018-06-22T10:37:13.802Z,27.81
2018-06-22T10:39:42.489Z,27.77
2018-06-22T10:42:11.135Z,27.80
2018-06-22T10:44:39.895Z,27.90
2018-06-22T10:47:08.608Z,27.96
2018-06-22T10:49:37.388Z,28.24
2018-06-22T10:52:06.066Z,28.16
2018-06-22T10:54:34.719Z,28.66
2018-06-22T10:57:03.413Z,28.72
2018-06-22T10:59:32.814Z,28.15
2018-06-22T11:02:01.503Z,28.15
2018-06-22T11:04:30.126Z,28.22
2018-06-22T11:06:58.825Z,28.20
2018-06-22T11:09:27.478Z,28.19
2018-06-22T11:11:56.261Z,28.69
2018-06-22T11:14:25.097Z,29.07
2018-06-22T11:16:53.739Z,28.96
2018-06-22T11:19:22.386Z,28.59
2018-06-22T11:21:51.046Z,28.40
2018-06-22T11:24:19.706Z,27.08
2018-06-22T11:26:48.309Z,25.46
2018-06-22T11:29:16.933Z,25.11
2018-06-22T11:31:45.573Z,23.60
2018-06-22T11:34:14.669Z,22.60
2018-06-22T11:36:43.284Z,21.98
2018-06-22T11:39:12.559Z,21.54
2018-06-22T11:41:41.964Z,21.35
2018-06-22T11:44:11.093Z,21.02
2018-06-22T11:46:40.252Z,20.65
2018-06-22T11:49:09.078Z,20.50
2018-06-22T11:51:37.678Z,20.29
2018-06-22T11:54:06.395Z,20.09
2018-06-22T11:56:35.026Z,19.75
2018-06-22T11:59:03.717Z,19.87
2018-06-22T12:01:32.338Z,19.99
2018-06-22T12:04:01.007Z,19.96
2018-06-22T12:06:29.674Z,19.83
2018-06-22T12:08:58.357Z,19.78
2018-06-22T12:11:27.024Z,19.88
2018-06-22T12:13:55.639Z,20.06
2018-06-22T12:16:24.468Z,20.13
2018-06-22T12:18:53.119Z,20.25
2018-06-22T12:21:21.782Z,20.35
2018-06-22T12:23:50.464Z,20.20
2018-06-22T12:26:19.120Z,20.22
2018-06-22T12:28:47.722Z,20.07
2018-06-22T12:31:16.400Z,19.97
2018-06-22T12:33:45.088Z,19.68
2018-06-22T12:36:13.746Z,19.02
2018-06-22T12:38:43.403Z,19.13
2018-06-22T12:41:12.033Z,19.27
2018-06-22T12:43:40.747Z,19.56
2018-06-22T12:46:09.390Z,19.79
2018-06-22T12:48:38.066Z,20.03
2018-06-22T12:51:07.288Z,20.19
2018-06-22T12:53:36.536Z,20.39
2018-06-22T12:56:05.662Z,20.69
2018-06-22T12:58:34.278Z,20.93
2018-06-22T13:01:03.650Z,21.17
2018-06-22T13:03:32.269Z,21.50
2018-06-22T13:06:00.924Z,22.01
2018-06-22T13:08:29.563Z,22.54
2018-06-22T13:10:58.224Z,23.05
2018-06-22T13:13:26.849Z,23.70
2018-06-22T13:15:55.487Z,24.23
2018-06-22T13:18:24.084Z,24.26
2018-06-22T13:20:52.739Z,24.16
2018-06-22T13:23:21.332Z,24.40
2018-06-22T13:25:50.043Z,24.59
2018-06-22T13:28:18.951Z,24.62
2018-06-22T13:30:47.787Z,24.87
2018-06-22T13:33:16.519Z,24.84
2018-06-22T13:35:45.180Z,24.91
2018-06-22T13:38:13.815Z,25.11
2018-06-22T13:40:42.445Z,25.06
2018-06-22T13:43:11.080Z,25.21
2018-06-22T13:45:39.818Z,25.28
2018-06-22T13:48:08.916Z,25.35
2018-06-22T13:50:37.963Z,25.07
2018-06-22T13:53:06.908Z,25.20
2018-06-22T13:55:35.543Z,25.38
2018-06-22T13:58:04.276Z,25.58
2018-06-22T14:00:32.976Z,25.81
2018-06-22T14:03:01.612Z,25.91
2018-06-22T14:05:35.459Z,25.92
2018-06-22T14:08:04.190Z,25.98
2018-06-22T14:10:33.042Z,25.95
2018-06-22T14:13:01.731Z,25.96
2018-06-22T14:15:30.397Z,25.52
2018-06-22T14:17:59.026Z,25.18
2018-06-22T14:20:27.661Z,25.31
2018-06-22T14:22:56.326Z,24.77
2018-06-22T14:25:25.069Z,24.83
2018-06-22T14:27:53.718Z,24.64
2018-06-22T14:30:22.434Z,24.69
2018-06-22T14:32:51.118Z,24.57
2018-06-22T14:35:20.210Z,24.56
2018-06-22T14:37:48.932Z,24.59
2018-06-22T14:40:17.720Z,24.53
2018-06-22T14:42:46.433Z,24.52
2018-06-22T14:45:15.228Z,24.45
2018-06-22T14:47:43.822Z,24.39
2018-06-22T14:50:17.782Z,24.37
2018-06-22T14:52:47.038Z,24.45
2018-06-22T14:55:20.670Z,24.58
2018-06-22T14:57:54.425Z,24.44
2018-06-22T15:00:28.353Z,24.29
2018-06-22T15:03:02.200Z,24.08
2018-06-22T15:05:36.051Z,23.82
2018-06-22T15:08:06.435Z,23.62
2018-06-22T15:10:35.053Z,23.51
2018-06-22T15:13:03.655Z,23.31
2018-06-22T15:15:32.322Z,23.18
2018-06-22T15:18:01.052Z,22.91
2018-06-22T15:20:29.776Z,22.64
2018-06-22T15:22:58.494Z,22.40
2018-06-22T15:25:27.222Z,22.20
2018-06-22T15:27:55.859Z,22.05
2018-06-22T15:30:24.672Z,22.00
2018-06-22T15:32:53.332Z,21.99
2018-06-22T15:35:27.334Z,21.97
2018-06-22T15:38:01.160Z,22.01
2018-06-22T15:40:35.096Z,21.75
2018-06-22T15:43:09.270Z,21.71
2018-06-22T15:45:43.210Z,21.66
2018-06-22T15:48:17.037Z,21.26
2018-06-22T15:50:50.950Z,20.85
2018-06-22T15:53:24.857Z,20.32
2018-06-22T15:55:57.605Z,19.91
2018-06-22T15:58:26.285Z,19.81
2018-06-22T16:00:54.957Z,19.89
2018-06-22T16:03:28.773Z,19.95
2018-06-22T16:05:57.392Z,19.93
2018-06-22T16:08:26.058Z,19.91
2018-06-22T16:10:54.738Z,19.83
2018-06-22T16:13:23.480Z,19.86
2018-06-22T16:15:57.271Z,19.99
2018-06-22T16:18:31.043Z,20.04
2018-06-22T16:21:04.917Z,20.14
2018-06-22T16:23:38.746Z,20.06
2018-06-22T16:26:12.695Z,20.02
2018-06-22T16:28:41.409Z,20.09
2018-06-22T16:31:10.037Z,20.15
2018-06-22T16:33:42.774Z,20.27
2018-06-22T16:36:11.743Z,20.28
2018-06-22T16:38:40.356Z,20.30
2018-06-22T16:41:09.010Z,20.39
2018-06-22T16:43:37.624Z,20.56
2018-06-22T16:46:06.358Z,20.61
2018-06-22T16:48:34.984Z,20.48
2018-06-22T16:51:03.721Z,20.36
2018-06-22T16:53:32.399Z,20.26
2018-06-22T16:56:01.048Z,20.25
2018-06-22T16:58:34.966Z,20.24
2018-06-22T17:01:03.670Z,20.24
2018-06-22T17:03:32.353Z,20.19
2018-06-22T17:06:01.147Z,20.20
2018-06-22T17:08:34.920Z,20.16
2018-06-22T17:11:08.856Z,20.16
2018-06-22T17:13:42.884Z,20.07
2018-06-22T17:16:16.805Z,20.03
2018-06-22T17:18:51.587Z,19.99
2018-06-22T17:21:21.018Z,19.93
2018-06-22T17:23:49.673Z,19.97
2018-06-22T17:26:18.301Z,19.93
2018-06-22T17:28:46.985Z,19.98
2018-06-22T17:31:15.735Z,20.00
2018-06-22T17:33:44.436Z,20.00
2018-06-22T17:36:13.167Z,19.98
2018-06-22T17:38:41.776Z,19.95
2018-06-22T17:41:10.450Z,19.86
2018-06-22T17:43:39.148Z,19.83
2018-06-22T17:46:07.892Z,19.64
2018-06-22T17:48:36.567Z,19.55
2018-06-22T17:51:05.311Z,19.49
2018-06-22T17:53:33.983Z,19.37
2018-06-22T17:56:02.604Z,19.23
2018-06-22T17:58:31.205Z,19.21
2018-06-22T18:01:05.083Z,19.08
2018-06-22T18:03:38.945Z,19.08
2018-06-22T18:06:12.816Z,18.99
2018-06-22T18:08:46.449Z,19.01
2018-06-22T18:11:20.166Z,19.02
2018-06-22T18:13:54.803Z,18.99
2018-06-22T18:16:23.499Z,19.03
2018-06-22T18:18:52.245Z,19.02
2018-06-22T18:21:21.426Z,18.97
2018-06-22T18:23:50.126Z,18.87
2018-06-22T18:26:18.858Z,18.85
2018-06-22T18:28:47.519Z,18.93
2018-06-22T18:31:16.147Z,18.98
2018-06-22T18:33:44.763Z,18.95
2018-06-22T18:36:14.059Z,19.03
2018-06-22T18:38:42.776Z,18.89
2018-06-22T18:41:11.427Z,18.79
2018-06-22T18:43:45.315Z,18.67
2018-06-22T18:46:13.970Z,18.63
2018-06-22T18:48:42.659Z,18.57
2018-06-22T18:51:11.486Z,18.50
2018-06-22T18:53:45.359Z,18.39
2018-06-22T18:56:19.060Z,18.36
2018-06-22T18:58:52.838Z,18.25
2018-06-22T19:01:26.671Z,18.19
2018-06-22T19:03:55.574Z,18.18
2018-06-22T19:06:24.303Z,18.14
2018-06-22T19:08:52.991Z,18.13
2018-06-22T19:11:21.721Z,18.14
2018-06-22T19:13:50.434Z,18.11
2018-06-22T19:16:19.091Z,18.10
2018-06-22T19:18:47.898Z,18.09
2018-06-22T19:21:16.498Z,18.10
2018-06-22T19:23:45.233Z,18.10
2018-06-22T19:26:14.041Z,18.13
2018-06-22T19:28:42.679Z,18.11
2018-06-22T19:31:11.372Z,18.06
2018-06-22T19:33:40.054Z,18.12
2018-06-22T19:36:08.758Z,18.14
2018-06-22T19:38:37.511Z,18.11
2018-06-22T19:41:06.180Z,18.06
2018-06-22T19:43:39.978Z,18.09
2018-06-22T19:46:13.879Z,18.07
2018-06-22T19:48:47.782Z,18.01
2018-06-22T19:51:22.195Z,18.00
2018-06-22T19:53:55.905Z,17.96
2018-06-22T19:56:24.592Z,17.97
2018-06-22T19:58:53.290Z,17.92
2018-06-22T20:01:22.082Z,17.91
2018-06-22T20:03:50.795Z,17.86
2018-06-22T20:06:19.805Z,17.81
2018-06-22T20:08:48.816Z,17.80
2018-06-22T20:11:17.508Z,17.78
2018-06-22T20:13:46.524Z,17.80
2018-06-22T20:16:15.705Z,17.80
2018-06-22T20:18:44.515Z,17.85
2018-06-22T20:21:13.766Z,17.85
2018-06-22T20:23:42.426Z,17.79
2018-06-22T20:26:11.086Z,17.64
2018-06-22T20:28:39.758Z,17.35
2018-06-22T20:31:08.547Z,17.12
2018-06-22T20:33:37.402Z,16.78
2018-06-22T20:36:11.317Z,16.43
2018-06-22T20:38:45.211Z,16.33
2018-06-22T20:41:21.386Z,15.88
2018-06-22T20:43:55.230Z,15.70
2018-06-22T20:46:29.012Z,15.47
2018-06-22T20:49:02.702Z,15.13
2018-06-22T20:51:46.866Z,14.92
2018-06-22T20:54:15.522Z,14.79
2018-06-22T20:56:44.190Z,14.63
2018-06-22T20:59:12.825Z,14.39
2018-06-22T21:01:41.535Z,14.19
2018-06-22T21:04:10.166Z,14.12
2018-06-22T21:06:39.188Z,13.95
2018-06-22T21:09:09.096Z,13.90
2018-06-22T21:11:37.786Z,13.88
2018-06-22T21:14:06.577Z,13.87
2018-06-22T21:16:35.799Z,13.78
2018-06-22T21:19:04.444Z,13.62
2018-06-22T21:21:38.204Z,13.51
2018-06-22T21:24:06.824Z,13.60
2018-06-22T21:26:35.552Z,13.68
2018-06-22T21:29:09.448Z,13.64
2018-06-22T21:31:43.324Z,13.71
2018-06-22T21:34:17.229Z,13.60
2018-06-22T21:36:50.934Z,13.61
2018-06-22T21:39:19.724Z,13.65
2018-06-22T21:41:48.357Z,13.71
2018-06-22T21:44:17.049Z,13.64
2018-06-22T21:46:45.757Z,13.50
2018-06-22T21:49:14.419Z,13.33
2018-06-22T21:51:43.061Z,13.25
2018-06-22T21:54:12.433Z,12.92
2018-06-22T21:56:41.058Z,12.62
2018-06-22T21:59:09.757Z,12.50
2018-06-22T22:01:38.531Z,12.25
2018-06-22T22:04:07.123Z,12.17
2018-06-22T22:06:35.828Z,12.16
2018-06-22T22:09:06.378Z,12.09
2018-06-22T22:11:40.157Z,12.07
2018-06-22T22:14:08.861Z,12.17
2018-06-22T22:16:37.451Z,12.21
2018-06-22T22:19:06.090Z,12.22
2018-06-22T22:21:34.936Z,12.30
2018-06-22T22:24:03.730Z,12.39
2018-06-22T22:26:32.432Z,12.29
2018-06-22T22:29:01.070Z,12.36
2018-06-22T22:31:29.869Z,12.24
2018-06-22T22:33:58.511Z,12.17
2018-06-22T22:36:27.185Z,12.12
2018-06-22T22:38:55.982Z,12.04
2018-06-22T22:41:24.617Z,12.14
2018-06-22T22:43:53.282Z,12.21
2018-06-22T22:46:22.052Z,12.26
2018-06-22T22:48:50.667Z,12.12
2018-06-22T22:51:19.455Z,11.89
2018-06-22T22:53:48.123Z,11.87
2018-06-22T22:56:16.792Z,11.81
2018-06-22T22:58:45.456Z,11.83
2018-06-22T23:01:14.176Z,11.86
2018-06-22T23:03:42.886Z,11.97
2018-06-22T23:06:11.528Z,11.96
2018-06-22T23:08:40.280Z,11.96
2018-06-22T23:11:09.013Z,12.06
2018-06-22T23:13:37.750Z,12.06
2018-06-22T23:16:06.647Z,12.03
2018-06-22T23:18:35.291Z,12.03
2018-06-22T23:21:04.033Z,12.06
2018-06-22T23:23:37.536Z,11.98
2018-06-22T23:26:06.542Z,12.14
2018-06-22T23:28:35.249Z,12.12
2018-06-22T23:31:05.196Z,12.05
2018-06-22T23:33:34.191Z,11.98
2018-06-22T23:36:03.846Z,11.97
2018-06-22T23:38:33.087Z,11.99
2018-06-22T23:41:01.732Z,11.98
2018-06-22T23:43:30.642Z,11.99
2018-06-22T23:45:59.290Z,11.97
2018-06-22T23:48:27.901Z,11.98
2018-06-22T23:50:56.547Z,11.96
2018-06-22T23:53:25.182Z,12.03
2018-06-22T23:55:53.850Z,11.94
2018-06-22T23:58:22.543Z,11.85
